CYZX

CFB Greenwood Airport

Greenwood, Nova Scotia, Canada
TAF CYZX 241733Z 2418/2518 36008KT P6SM SKC BECMG 2423/2424 VRB03KT FM251000 VRB03KT P6SM SCT100 FM251600 16012KT P6SM FEW040 SCT250 RMK NXT FCST BY 250000Z
Issued Valid From Valid To
Sep-24 @ 17:33 UTC
(6 hours ago)
Sep-24 @ 18:00 UTC
(5 hours ago)
Sep-25 @ 18:00 UTC
(in 19 hours)
Expired Click to View Sep-24 @ 18:00 to Sep-24 @ 23:00
TAF CYZX 241733Z 2418/2518 36008KT P6SM SKC
Wind Visibility Clouds
360° at 8 knots Greater than 6 miles
  • Clear skies
Becoming Sep-24 @ 23:00 to Sep-25 @ 10:00
BECMG 2423/2424 VRB03KT
Wind Visibility Clouds
Variable at 3 knots Greater than 6 miles
  • Clear skies
From Sep-25 @ 10:00 to Sep-25 @ 16:00
FM251000 VRB03KT P6SM SCT100
Wind Visibility Clouds
Variable at 3 knots Greater than 6 miles
  • Scattered at 10,000' AGL
From Sep-25 @ 16:00 to Sep-25 @ 18:00
FM251600 16012KT P6SM FEW040 SCT250 RMK NXT FCST BY 250000Z
Wind Visibility Clouds
160° at 12 knots Greater than 6 miles
  • Few at 4,000' AGL
  • Scattered at 25,000' AGL
TAF CYZX 241733Z 2418/2518 36008KT P6SM SKC BECMG 2423/2424 VRB03KT FM251000 VRB03KT P6SM SCT100 FM251600 16012KT P6SM FEW040 SCT250 RMK NXT FCST BY 250000Z
Issued Sep-24 @ 17:33 UTC
(6 hours ago)
Valid From Sep-24 @ 18:00 UTC
(5 hours ago)
Valid To Sep-25 @ 18:00 UTC
(in 19 hours)
Sep-24 @ 18:00 - Sep-24 @ 23:00
Wind Visibility
360° at 8 knots Greater than 6 miles
Clouds
  • Clear skies
Becoming Sep-24 @ 23:00 - Sep-25 @ 10:00
Wind Visibility
Variable at 3 knots Greater than 6 miles
Clouds
  • Clear skies
From Sep-25 @ 10:00 - Sep-25 @ 16:00
Wind Visibility
Variable at 3 knots Greater than 6 miles
Clouds
  • Scattered at 10,000' AGL
From Sep-25 @ 16:00 - Sep-25 @ 18:00
Wind Visibility
160° at 12 knots Greater than 6 miles
Clouds
  • Few at 4,000' AGL
  • Scattered at 25,000' AGL